ROYN/OGN METAR and TAF weather

Enter ICAO airport designator
Station Type Date Time Source
ROYN METAR 2021/04/13 21:00 UTC NOAA

ROYN 132100Z AUTO 04017KT 9999 FEW010 BKN011 BKN015 23/22 Q1013


Station Type Date Time Source
ROYN Decoded METAR 2021/04/13 21:00 UTC NOAA

Yonaguni Airport, Japan (ROYN) 24-28N 122-59E 19M
Apr 13, 2021 - 05:00 PM EDT / 2021.04.13 2100 UTC
Wind: from the NE (040 degrees) at 20 MPH (17 KT):0
Visibility: greater than 7 mile(s):0
Sky conditions: mostly cloudy
Temperature: 73 F (23 C)
Dew Point: 71 F (22 C)
Relative Humidity: 94%
Pressure (altimeter): 29.91 in. Hg (1013 hPa)
ob: ROYN 132100Z AUTO 04017KT 9999 FEW010 BKN011 BKN015 23/22 Q1013
cycle: 21

Station Type Date Time Source
ROYN TAF UTC NOAA

Error!

Example: see airport list